createdAt,value
2022-08-25T00:01:40.273Z,97766.00
2022-08-25T00:04:11.038Z,97761.38
2022-08-25T00:06:42.211Z,97760.63
2022-08-25T00:09:11.456Z,97756.00
2022-08-25T00:11:40.007Z,97761.06
2022-08-25T00:14:23.501Z,97752.47
2022-08-25T00:16:50.237Z,97764.25
2022-08-25T00:19:25.102Z,97758.75
2022-08-25T00:21:52.001Z,97762.38
2022-08-25T00:24:20.464Z,97754.44
2022-08-25T00:26:50.075Z,97757.00
2022-08-25T00:29:17.219Z,97752.25
2022-08-25T00:31:44.502Z,97755.31
2022-08-25T00:34:17.636Z,97758.97
2022-08-25T00:36:45.021Z,97766.97
2022-08-25T00:39:12.027Z,97766.59
2022-08-25T00:41:44.267Z,97774.34
2022-08-25T00:44:13.181Z,97773.28
2022-08-25T00:46:43.695Z,97766.63
2022-08-25T00:49:25.043Z,97768.53
2022-08-25T00:52:16.160Z,97762.44
2022-08-25T00:54:56.034Z,97765.03
2022-08-25T00:57:35.115Z,97759.75
2022-08-25T01:00:11.351Z,97751.34
2022-08-25T01:02:39.218Z,97761.72
2022-08-25T01:05:06.715Z,97760.69
2022-08-25T01:07:35.257Z,97767.16
2022-08-25T01:10:08.038Z,97774.81
2022-08-25T01:12:34.974Z,97775.81
2022-08-25T01:15:04.737Z,97768.53
2022-08-25T01:17:53.177Z,97761.22
2022-08-25T01:20:29.354Z,97756.28
2022-08-25T01:23:00.555Z,97745.06
2022-08-25T01:25:32.781Z,97745.91
2022-08-25T01:27:59.812Z,97746.66
2022-08-25T01:30:26.989Z,97754.09
2022-08-25T01:32:53.861Z,97756.06
2022-08-25T01:35:24.441Z,97762.38
2022-08-25T01:37:51.034Z,97764.06
2022-08-25T01:40:17.960Z,97763.03
2022-08-25T01:42:54.107Z,97767.88
2022-08-25T01:45:23.832Z,97769.22
2022-08-25T01:47:50.594Z,97768.22
2022-08-25T01:50:17.426Z,97768.75
2022-08-25T01:53:03.326Z,97772.69
2022-08-25T01:55:51.845Z,97778.97
2022-08-25T01:58:32.929Z,97782.59
2022-08-25T02:01:03.221Z,97786.81
2022-08-25T02:03:31.116Z,97786.09
2022-08-25T02:06:04.240Z,97788.13
2022-08-25T02:08:31.600Z,97786.22
2022-08-25T02:10:58.198Z,97785.16
2022-08-25T02:13:26.969Z,97778.59
2022-08-25T02:16:00.992Z,97782.94
2022-08-25T02:18:34.421Z,97782.25
2022-08-25T02:21:01.340Z,97783.84
2022-08-25T02:23:28.309Z,97774.94
2022-08-25T02:25:59.405Z,97779.31
2022-08-25T02:28:26.318Z,97779.78
2022-08-25T02:30:53.135Z,97778.69
2022-08-25T02:33:34.121Z,97778.34
2022-08-25T02:36:03.668Z,97781.53
2022-08-25T02:38:30.635Z,97769.09
2022-08-25T02:40:58.817Z,97762.88
2022-08-25T02:43:26.294Z,97761.38
2022-08-25T02:45:55.506Z,97767.63
2022-08-25T02:48:27.719Z,97767.25
2022-08-25T02:50:54.324Z,97775.03
2022-08-25T02:53:21.563Z,97769.97
2022-08-25T02:55:50.391Z,97775.50
2022-08-25T02:58:16.955Z,97775.22
2022-08-25T03:00:43.869Z,97772.91
2022-08-25T03:03:12.163Z,97778.06
2022-08-25T03:05:39.041Z,97780.38
2022-08-25T03:08:07.054Z,97787.81
2022-08-25T03:10:36.067Z,97791.44
2022-08-25T03:13:03.078Z,97800.84
2022-08-25T03:15:30.580Z,97799.25
2022-08-25T03:17:59.792Z,97790.66
2022-08-25T03:20:27.954Z,97799.34
2022-08-25T03:22:54.536Z,97790.84
2022-08-25T03:25:41.341Z,97798.28
2022-08-25T03:28:10.301Z,97790.53
2022-08-25T03:30:36.861Z,97790.53
2022-08-25T03:33:04.138Z,97783.16
2022-08-25T03:35:31.038Z,97790.16
2022-08-25T03:37:59.162Z,97780.47
2022-08-25T03:40:31.347Z,97781.66
2022-08-25T03:43:00.711Z,97777.00
2022-08-25T03:45:30.932Z,97780.56
2022-08-25T03:47:57.725Z,97775.09
2022-08-25T03:50:24.392Z,97769.16
2022-08-25T03:52:55.839Z,97767.16
2022-08-25T03:55:26.523Z,97770.19
2022-08-25T03:57:54.699Z,97765.47
2022-08-25T04:00:23.376Z,97765.06
2022-08-25T04:02:52.434Z,97764.66
2022-08-25T04:08:06.003Z,97769.56
2022-08-25T04:10:32.745Z,97770.31
2022-08-25T04:12:59.998Z,97775.75
2022-08-25T04:15:27.144Z,97774.19
2022-08-25T04:17:57.231Z,97776.56
2022-08-25T04:20:30.379Z,97778.19
2022-08-25T04:23:00.864Z,97782.22
2022-08-25T04:25:27.539Z,97780.03
2022-08-25T04:27:55.380Z,97776.13
2022-08-25T04:30:22.274Z,97777.28
2022-08-25T04:32:49.656Z,97771.78
2022-08-25T04:35:16.760Z,97783.06
2022-08-25T04:37:43.545Z,97783.81
2022-08-25T04:40:10.899Z,97781.88
2022-08-25T04:42:37.504Z,97779.94
2022-08-25T04:45:13.151Z,97777.63
2022-08-25T04:47:39.971Z,97778.03
2022-08-25T04:50:07.719Z,97779.16
2022-08-25T04:52:34.537Z,97779.09
2022-08-25T04:55:01.203Z,97772.38
2022-08-25T04:57:31.435Z,97765.34
2022-08-25T04:59:58.140Z,97765.41
2022-08-25T05:02:25.338Z,97766.22
2022-08-25T05:04:52.263Z,97765.84
2022-08-25T05:07:20.671Z,97754.47
2022-08-25T05:09:47.545Z,97750.13
2022-08-25T05:12:14.112Z,97749.81
2022-08-25T05:14:40.801Z,97751.19
2022-08-25T05:17:07.542Z,97748.50
2022-08-25T05:19:34.185Z,97747.25
2022-08-25T05:22:02.593Z,97746.88
2022-08-25T05:24:29.746Z,97745.88
2022-08-25T05:26:56.516Z,97741.66
2022-08-25T05:29:29.819Z,97741.53
2022-08-25T05:31:56.545Z,97745.09
2022-08-25T05:34:23.284Z,97751.59
2022-08-25T05:36:51.713Z,97743.19
2022-08-25T05:39:18.436Z,97747.59
2022-08-25T05:41:45.015Z,97749.94
2022-08-25T05:44:17.903Z,97748.69
2022-08-25T05:46:47.313Z,97749.06
2022-08-25T05:49:13.866Z,97749.50
2022-08-25T05:51:42.337Z,97748.59
2022-08-25T05:54:09.123Z,97747.66
2022-08-25T05:56:36.130Z,97748.16
2022-08-25T05:59:09.103Z,97739.16
2022-08-25T06:01:54.651Z,97734.94
2022-08-25T06:04:22.751Z,97737.06
2022-08-25T06:06:53.394Z,97729.59
2022-08-25T06:09:20.088Z,97731.56
2022-08-25T06:11:55.590Z,97724.81
2022-08-25T06:14:22.715Z,97718.81
2022-08-25T06:16:51.545Z,97722.69
2022-08-25T06:19:22.589Z,97727.66
2022-08-25T06:21:49.705Z,97731.00
2022-08-25T06:24:16.253Z,97734.44
2022-08-25T06:26:45.849Z,97738.41
2022-08-25T06:29:14.722Z,97727.28
2022-08-25T06:31:42.719Z,97728.50
2022-08-25T06:34:10.494Z,97732.47
2022-08-25T06:36:37.030Z,97727.63
2022-08-25T06:39:04.576Z,97737.66
2022-08-25T06:41:37.697Z,97734.53
2022-08-25T06:44:05.384Z,97742.94
2022-08-25T06:46:36.402Z,97745.50
2022-08-25T06:49:08.339Z,97741.91
2022-08-25T06:51:38.296Z,97733.50
2022-08-25T06:54:06.683Z,97734.69
2022-08-25T06:56:34.352Z,97744.69
2022-08-25T06:59:02.273Z,97743.31
2022-08-25T07:01:29.495Z,97749.53
2022-08-25T07:04:04.265Z,97744.03
2022-08-25T07:06:35.386Z,97740.13
2022-08-25T07:09:11.865Z,97733.50
2022-08-25T07:11:43.223Z,97738.38
2022-08-25T07:14:12.935Z,97741.06
2022-08-25T07:16:49.639Z,97738.97
2022-08-25T07:19:20.783Z,97738.06
2022-08-25T07:21:53.795Z,97735.06
2022-08-25T07:24:21.632Z,97744.50
2022-08-25T07:26:48.436Z,97738.47
2022-08-25T07:29:31.728Z,97736.34
2022-08-25T07:32:01.011Z,97735.03
2022-08-25T07:34:55.287Z,97734.06
2022-08-25T07:37:48.134Z,97739.84
2022-08-25T07:40:16.655Z,97734.56
2022-08-25T07:42:45.321Z,97732.88
2022-08-25T07:45:13.763Z,97731.31
2022-08-25T07:47:46.822Z,97738.81
2022-08-25T07:50:13.750Z,97738.63
2022-08-25T07:52:41.443Z,97737.09
2022-08-25T07:55:11.514Z,97742.22
2022-08-25T07:57:40.219Z,97748.53
2022-08-25T08:00:10.757Z,97736.63
2022-08-25T08:02:43.744Z,97729.84
2022-08-25T08:05:12.153Z,97742.66
2022-08-25T08:07:43.025Z,97747.84
2022-08-25T08:13:02.363Z,97738.41
